Latest Weather Observations for Edenhope

IDV60801

Issued at 6:32 am EST Saturday 24 June 2017 (issued every 30 minutes, with the page automatically refreshed every 10 minutes)

About weather observations | Map of weather stations | Latest weather observations for VIC | Other Formats
Station Details ID: 079099 Name: EDENHOPE AIRPORT Lat: -37.02 Lon: 141.27 Height: 155.0 m
Data from the previous 72 hours. | See also: Recent months at Edenhope
Date/Time
EST
Temp
°C
App
Temp
°C
Dew
Point
°C
Rel
Hum
%
Delta-T
°C
Wind Press
QNH
hPa
Press
MSL
hPa
Rain since
9am
mm
Dir  Spd
km/h
Gust
km/h
Spd
kts
Gust
kts
24/06:30am 6.3 5.4 6.2 99 0.0 CALM 0 0 0 0 - - 0.0
24/06:00am 6.6 5.8 6.5 99 0.0 CALM 0 0 0 0 - - 0.0
24/05:30am 6.6 5.8 6.3 98 0.1 CALM 0 0 0 0 - - 0.0
24/05:00am 7.2 6.5 6.9 98 0.1 CALM 0 0 0 0 - - 0.0
24/04:30am 7.0 6.2 6.6 97 0.2 CALM 0 0 0 0 - - 0.0
24/04:00am 7.5 6.4 7.1 97 0.2 SW 2 2 1 1 - - 0.0
24/03:30am 7.7 5.8 7.4 98 0.1 SSE 7 9 4 5 - - 0.0
24/03:00am 8.2 5.7 8.1 99 0.0 S 11 17 6 9 - - 0.0
24/02:30am 8.3 6.6 8.2 99 0.0 SSW 7 13 4 7 - - 0.0
24/02:00am 7.9 6.3 7.8 99 0.0 SW 6 7 3 4 - - 0.0
24/01:30am 7.7 6.4 7.6 99 0.0 SW 4 6 2 3 - - 0.0
24/01:00am 8.0 6.4 7.9 99 0.0 SW 6 6 3 3 - - 0.0
24/12:30am 7.4 6.0 7.1 98 0.1 WSW 4 7 2 4 - - 0.0
24/12:00am 7.6 6.2 7.2 97 0.2 W 4 6 2 3 - - 0.0
 
Date/Time
EST
Temp
°C
App
Temp
°C
Dew
Point
°C
Rel
Hum
%
Delta-T
°C
Wind Press
QNH
hPa
Press
MSL
hPa
Rain since
9am
mm
Dir  Spd
km/h
Gust
km/h
Spd
kts
Gust
kts
23/11:30pm 8.1 6.8 7.7 97 0.2 WNW 4 6 2 3 - - 0.0
23/11:00pm 8.7 7.1 7.8 94 0.4 NW 6 7 3 4 - - 0.0
23/10:30pm 10.0 8.7 9.1 94 0.4 W 6 7 3 4 - - 0.0
23/10:00pm 10.1 8.8 9.2 94 0.4 WSW 6 7 3 4 - - 0.0
23/09:30pm 10.3 8.8 9.2 93 0.6 WSW 7 11 4 6 - - 0.0
23/09:00pm 10.4 8.9 9.3 93 0.6 W 7 11 4 6 - - 0.0
23/08:30pm 10.4 8.2 9.3 93 0.6 W 11 15 6 8 - - 0.0
23/08:00pm 9.6 8.0 8.7 94 0.4 WNW 7 11 4 6 - - 0.0
23/07:30pm 9.7 8.0 8.5 92 0.6 WNW 7 9 4 5 - - 0.0
23/07:00pm 9.7 7.5 7.8 88 0.9 WNW 9 11 5 6 - - 0.0
23/06:30pm 11.1 9.1 8.7 85 1.2 WNW 9 13 5 7 - - 0.0
23/06:00pm 11.5 9.1 8.7 83 1.4 WNW 11 15 6 8 - - 0.0
23/05:30pm 12.5 9.8 9.0 79 1.8 WNW 13 22 7 12 - - 0.0
23/05:00pm 12.8 9.8 9.1 78 1.9 WNW 15 20 8 11 - - 0.0
23/04:30pm 14.0 10.5 8.8 71 2.6 WNW 17 24 9 13 - - 0.0
23/04:00pm 14.0 11.2 10.0 77 2.1 WNW 15 22 8 12 - - 0.0
23/03:30pm 13.9 11.9 10.1 78 2.0 WNW 11 17 6 9 - - 0.0
23/03:00pm 12.9 11.1 9.5 80 1.7 NW 9 15 5 8 - - 0.0
23/02:30pm 12.9 10.7 9.4 79 1.8 WNW 11 17 6 9 - - 0.0
23/02:00pm 12.6 9.9 9.1 79 1.8 W 13 20 7 11 - - 0.0
23/01:30pm 13.1 9.3 9.2 77 2.0 W 19 26 10 14 - - 0.0
23/01:00pm 12.6 10.7 8.9 78 1.9 WNW 9 13 5 7 - - 0.0
23/12:30pm 12.5 10.1 8.8 78 1.9 NW 11 17 6 9 - - 0.0
23/12:00pm 11.7 9.5 7.8 77 1.9 NW 9 13 5 7 - - 0.0
23/11:30am 11.0 9.1 6.7 75 2.0 WNW 6 9 3 5 - - 0.0
23/11:00am 10.2 8.1 6.5 78 1.7 NW 7 9 4 5 - - 0.0
23/10:30am 9.1 6.8 5.5 78 1.6 NNW 7 11 4 6 - - 0.0
23/10:00am 8.8 5.6 5.0 77 1.7 NNW 11 17 6 9 - - 0.0
23/09:30am 8.0 5.1 4.6 79 1.5 N 9 13 5 7 - - 0.0
23/09:00am 6.7 4.1 4.2 84 1.1 N 7 11 4 6 - - 0.0
23/08:30am 5.7 2.6 3.7 87 0.8 N 9 11 5 6 - - 0.0
23/08:00am 4.1 0.8 2.6 90 0.6 N 9 11 5 6 - - 0.0
23/07:30am 4.8 2.0 3.3 90 0.6 N 7 11 4 6 - - 0.0
23/07:00am 4.4 1.5 2.8 89 0.7 N 7 9 4 5 - - 0.0
23/06:30am 4.8 2.2 3.3 90 0.6 N 6 7 3 4 - - 0.0
23/06:00am 5.1 2.0 3.8 91 0.5 N 9 13 5 7 - - 0.0
23/05:30am 5.3 2.7 4.0 91 0.6 N 7 11 4 6 - - 0.0
23/05:00am 5.3 2.7 4.1 92 0.5 NNE 7 11 4 6 - - 0.0
23/04:30am 5.3 2.3 4.3 93 0.4 N 9 13 5 7 - - 0.0
23/04:00am 6.0 2.7 4.8 92 0.5 N 11 17 6 9 - - 0.0
23/03:30am 6.2 2.6 5.0 92 0.5 N 13 17 7 9 - - 0.0
23/03:00am 6.2 3.4 5.0 92 0.5 N 9 11 5 6 - - 0.0
23/02:30am 6.1 3.2 4.7 91 0.6 N 9 11 5 6 - - 0.0
23/02:00am 6.5 3.6 4.8 89 0.7 N 9 13 5 7 - - 0.0
23/01:30am 6.6 3.4 5.1 90 0.7 N 11 13 6 7 - - 0.0
23/01:00am 6.7 3.8 4.7 87 0.9 N 9 11 5 6 - - 0.0
23/12:30am 7.5 4.7 5.1 85 1.1 N 9 15 5 8 - - 0.0
23/12:00am 8.2 4.7 5.5 83 1.2 N 13 17 7 9 - - 0.0
 
Date/Time
EST
Temp
°C
App
Temp
°C
Dew
Point
°C
Rel
Hum
%
Delta-T
°C
Wind Press
QNH
hPa
Press
MSL
hPa
Rain since
9am
mm
Dir  Spd
km/h
Gust
km/h
Spd
kts
Gust
kts
22/11:30pm 8.8 5.3 5.4 79 1.5 N 13 17 7 9 - - 0.0
22/11:00pm 9.3 5.9 5.7 78 1.7 N 13 20 7 11 - - 0.0
22/10:30pm 9.6 6.2 6.0 78 1.7 N 13 19 7 10 - - 0.0
22/10:00pm 9.2 6.5 5.8 79 1.6 N 9 13 5 7 - - 0.0
22/09:30pm 10.0 7.4 6.3 78 1.7 NNE 9 13 5 7 - - 0.0
22/09:00pm 10.3 8.2 6.5 77 1.8 NNE 7 11 4 6 - - 0.0
22/08:30pm 10.6 8.5 6.6 76 1.9 NE 7 11 4 6 - - 0.0
22/08:00pm 10.8 8.7 6.6 75 2.0 NNE 7 9 4 5 - - 0.0
22/07:30pm 11.0 8.9 6.7 75 2.0 NNE 7 11 4 6 - - 0.0
22/07:00pm 10.9 9.0 6.6 75 2.0 NE 6 7 3 4 - - 0.0
22/06:30pm 11.9 9.5 6.8 71 2.5 NNE 9 13 5 7 - - 0.0
22/06:00pm 11.7 9.6 6.6 71 2.4 N 7 9 4 5 - - 0.0
22/05:30pm 12.5 10.0 6.5 67 2.9 N 9 11 5 6 - - 0.0
22/05:00pm 13.1 10.6 6.7 65 3.1 N 9 11 5 6 - - 0.0
22/04:30pm 14.1 12.1 7.2 63 3.4 N 7 11 4 6 - - 0.0
22/04:00pm 14.2 11.9 7.3 63 3.4 N 9 15 5 8 - - 0.0
22/03:30pm 15.7 12.8 8.0 60 3.9 NNW 13 17 7 9 - - 0.0
22/03:00pm 15.5 13.0 8.0 61 3.8 NNW 11 17 6 9 - - 0.0
22/02:30pm 15.8 13.8 8.8 63 3.6 NNW 9 15 5 8 - - 0.0
22/02:00pm 15.3 12.8 8.3 63 3.6 NNW 11 19 6 10 - - 0.0
22/01:30pm 15.2 12.4 8.4 64 3.5 NNW 13 20 7 11 - - 0.0
22/01:00pm 14.8 11.9 8.3 65 3.3 NW 13 20 7 11 - - 0.0
22/12:30pm 14.5 13.0 9.3 71 2.7 NW 7 13 4 7 - - 0.0
22/12:00pm 13.9 11.4 8.3 69 2.8 NNW 11 17 6 9 - - 0.0
22/11:30am 13.6 11.1 8.4 71 2.6 NNW 11 19 6 10 - - 0.0
22/11:00am 12.7 10.1 7.6 71 2.5 NNW 11 17 6 9 - - 0.0
22/10:30am 12.0 10.2 8.1 77 1.9 N 7 11 4 6 - - 0.0
22/10:00am 10.5 8.8 8.4 87 1.0 N 7 13 4 7 - - 0.0
22/09:30am 10.6 9.1 9.2 91 0.7 N 7 11 4 6 - - 0.0
22/09:00am 9.6 7.6 8.5 93 0.5 NNE 9 13 5 7 - - 0.2
22/08:30am 9.4 7.0 8.5 94 0.4 NNE 11 15 6 8 - - 0.2
22/08:00am 9.2 7.7 8.3 94 0.4 NNE 6 9 3 5 - - 0.2
22/07:30am 9.3 7.7 8.2 93 0.5 ENE 6 7 3 4 - - 0.2
22/07:00am 9.5 7.8 8.3 92 0.6 NNE 7 11 4 6 - - 0.2
22/06:30am 9.5 7.8 8.4 93 0.5 NE 7 11 4 6 - - 0.2
22/06:00am 9.5 7.8 8.4 93 0.5 NNE 7 11 4 6 - - 0.2
22/05:30am 9.3 7.7 8.2 93 0.5 NE 6 9 3 5 - - 0.2
22/05:00am 9.1 7.4 8.3 95 0.4 NE 7 9 4 5 - - 0.0
22/04:30am 8.7 7.2 8.4 98 0.1 ENE 6 7 3 4 - - 0.0
22/04:00am 8.0 6.3 7.7 98 0.1 NE 6 6 3 3 - - 0.0
22/03:30am 7.0 6.2 6.6 97 0.2 CALM 0 0 0 0 - - 0.0
22/03:00am 6.9 6.1 6.5 97 0.2 CALM 0 2 0 1 - - 0.0
22/02:30am 7.3 5.8 6.9 97 0.2 NE 4 6 2 3 - - 0.0
22/02:00am 7.8 7.2 7.2 96 0.3 CALM 0 0 0 0 - - 0.0
22/01:30am 7.9 6.8 6.7 92 0.6 ENE 2 6 1 3 - - 0.0
22/01:00am 9.3 7.5 8.1 92 0.6 NE 7 9 4 5 - - 0.0
22/12:30am 9.6 8.0 8.0 90 0.8 NE 6 7 3 4 - - 0.0
22/12:00am 10.1 8.4 8.2 88 0.9 NE 7 9 4 5 - - 0.0
 
Date/Time
EST
Temp
°C
App
Temp
°C
Dew
Point
°C
Rel
Hum
%
Delta-T
°C
Wind Press
QNH
hPa
Press
MSL
hPa
Rain since
9am
mm
Dir  Spd
km/h
Gust
km/h
Spd
kts
Gust
kts
21/11:30pm 10.6 9.0 8.2 85 1.2 ENE 6 9 3 5 - - 0.0
21/11:00pm 10.8 9.7 8.4 85 1.2 ENE 4 6 2 3 - - 0.0
21/10:30pm 11.1 9.6 8.5 84 1.3 ENE 6 11 3 6 - - 0.0
21/10:00pm 11.2 9.5 8.4 83 1.4 E 7 11 4 6 - - 0.0
21/09:30pm 11.2 9.6 8.6 84 1.3 ENE 7 9 4 5 - - 0.0
21/09:00pm 11.2 9.6 8.8 85 1.2 E 7 9 4 5 - - 0.0
21/08:30pm 11.3 9.9 8.9 85 1.2 SE 6 7 3 4 - - 0.0
21/08:00pm 11.2 10.3 9.1 87 1.1 ENE 4 6 2 3 - - 0.0
21/07:30pm 11.4 10.5 9.1 86 1.2 E 4 6 2 3 - - 0.0
21/07:00pm 11.7 10.8 9.1 84 1.3 ESE 4 6 2 3 - - 0.0
21/06:30pm 11.9 11.4 9.3 84 1.3 SE 2 4 1 2 - - 0.0
21/06:00pm 12.2 11.7 9.2 82 1.5 E 2 4 1 2 - - 0.0
21/05:30pm 12.5 11.6 9.1 80 1.7 SSE 4 4 2 2 - - 0.0
21/05:00pm 13.0 12.0 8.9 76 2.1 ESE 4 6 2 3 - - 0.0
21/04:30pm 13.2 12.2 8.9 75 2.2 ESE 4 6 2 3 - - 0.0
21/04:00pm 13.5 12.1 9.0 74 2.3 E 6 9 3 5 - - 0.0
21/03:30pm 13.8 13.1 8.4 70 2.7 E 2 4 1 2 - - 0.0
21/03:00pm 13.8 12.7 8.4 70 2.7 E 4 4 2 2 - - 0.0
21/02:30pm 14.1 12.7 8.7 70 2.7 ESE 6 9 3 5 - - 0.0
21/02:00pm 14.1 12.5 8.7 70 2.7 E 7 11 4 6 - - 0.0
21/01:30pm 13.8 11.7 8.4 70 2.7 E 9 15 5 8 - - 0.0
21/01:00pm 13.6 11.7 9.1 74 2.3 ENE 9 13 5 7 - - 0.0
21/12:30pm 13.4 11.6 9.3 76 2.1 E 9 13 5 7 - - 0.0
21/12:00pm 12.6 11.2 8.7 77 2.0 ESE 6 7 3 4 - - 0.0
21/11:30am 12.3 10.9 9.0 80 1.7 ESE 6 7 3 4 - - 0.0
21/11:00am 11.7 10.4 9.1 84 1.3 E 6 7 3 4 - - 0.0
21/10:30am 11.4 10.6 9.5 88 1.0 SE 4 6 2 3 - - 0.0
21/10:00am 10.6 9.3 9.2 91 0.7 E 6 9 3 5 - - 0.0
21/09:30am 10.1 8.9 9.5 96 0.3 ENE 6 9 3 5 - - 0.0
21/09:00am 9.9 9.1 9.8 99 0.1 ENE 4 7 2 4 - - 0.0
21/08:30am 8.3 7.8 8.0 98 0.1 CALM 0 2 0 1 - - 0.0
21/08:00am 9.2 8.3 9.1 99 0.0 E 4 6 2 3 - - 0.0
21/07:30am 9.5 8.3 9.5 100 0.0 SE 6 7 3 4 - - 0.0
21/07:00am 9.5 8.3 9.5 100 0.0 SE 6 9 3 5 - - 0.0

Other Formats:

Comma delimited format used in spreadsheet applications
http://www.bom.gov.au/fwo/IDV60801/IDV60801.95832.axf

JavaScript Object Notation format (JSON) in row-major order
http://www.bom.gov.au/fwo/IDV60801/IDV60801.95832.json